sensor_id;sensor_type;location;lat;lon;timestamp;P1;durP1;ratioP1;P2;durP2;ratioP2
3747;SDS011;1889;50.058;8.688;2023-02-28T18:29:41;6.08;;;4.53;;
3747;SDS011;1889;50.058;8.688;2023-02-28T18:32:10;7.20;;;5.37;;
3747;SDS011;1889;50.058;8.688;2023-02-28T18:34:39;7.62;;;5.72;;
3747;SDS011;1889;50.058;8.688;2023-02-28T18:37:09;12.13;;;6.05;;
3747;SDS011;1889;50.058;8.688;2023-02-28T18:39:38;7.03;;;5.50;;
3747;SDS011;1889;50.058;8.688;2023-02-28T18:42:07;7.95;;;6.08;;
3747;SDS011;1889;50.058;8.688;2023-02-28T18:44:37;7.42;;;6.30;;
3747;SDS011;1889;50.058;8.688;2023-02-28T18:47:06;5.75;;;4.75;;
3747;SDS011;1889;50.058;8.688;2023-02-28T18:49:35;6.50;;;5.12;;
3747;SDS011;1889;50.058;8.688;2023-02-28T18:52:05;6.95;;;5.42;;
3747;SDS011;1889;50.058;8.688;2023-02-28T18:54:34;7.58;;;4.92;;
3747;SDS011;1889;50.058;8.688;2023-02-28T18:57:03;5.60;;;5.10;;
3747;SDS011;1889;50.058;8.688;2023-02-28T18:59:33;8.18;;;5.35;;
3747;SDS011;1889;50.058;8.688;2023-02-28T19:02:02;8.05;;;5.60;;
3747;SDS011;1889;50.058;8.688;2023-02-28T19:04:32;7.45;;;5.28;;
3747;SDS011;1889;50.058;8.688;2023-02-28T19:07:01;6.87;;;4.90;;
3747;SDS011;1889;50.058;8.688;2023-02-28T19:09:30;7.80;;;5.10;;
3747;SDS011;1889;50.058;8.688;2023-02-28T19:12:00;7.53;;;5.87;;
3747;SDS011;1889;50.058;8.688;2023-02-28T19:14:29;6.37;;;5.20;;
3747;SDS011;1889;50.058;8.688;2023-02-28T19:16:58;5.58;;;4.45;;
3747;SDS011;1889;50.058;8.688;2023-02-28T19:19:28;6.08;;;5.30;;
3747;SDS011;1889;50.058;8.688;2023-02-28T19:21:57;9.68;;;5.95;;
3747;SDS011;1889;50.058;8.688;2023-02-28T19:24:26;8.38;;;5.47;;
3747;SDS011;1889;50.058;8.688;2023-02-28T19:26:56;6.85;;;5.20;;
3747;SDS011;1889;50.058;8.688;2023-02-28T19:29:25;6.20;;;5.33;;
3747;SDS011;1889;50.058;8.688;2023-02-28T19:31:55;5.30;;;4.42;;
3747;SDS011;1889;50.058;8.688;2023-02-28T19:34:25;8.53;;;5.12;;
3747;SDS011;1889;50.058;8.688;2023-02-28T19:36:54;8.65;;;5.70;;
3747;SDS011;1889;50.058;8.688;2023-02-28T19:39:23;6.47;;;5.45;;
3747;SDS011;1889;50.058;8.688;2023-02-28T19:41:53;6.72;;;5.00;;
3747;SDS011;1889;50.058;8.688;2023-02-28T19:44:22;5.30;;;4.80;;
3747;SDS011;1889;50.058;8.688;2023-02-28T19:46:51;6.90;;;5.03;;
3747;SDS011;1889;50.058;8.688;2023-02-28T19:49:20;6.17;;;4.92;;
3747;SDS011;1889;50.058;8.688;2023-02-28T19:51:50;7.97;;;5.67;;
3747;SDS011;1889;50.058;8.688;2023-02-28T19:54:19;10.25;;;6.65;;
3747;SDS011;1889;50.058;8.688;2023-02-28T19:56:48;7.58;;;5.85;;
3747;SDS011;1889;50.058;8.688;2023-02-28T19:59:18;7.90;;;5.50;;
3747;SDS011;1889;50.058;8.688;2023-02-28T20:01:48;10.08;;;6.10;;
3747;SDS011;1889;50.058;8.688;2023-02-28T20:04:19;8.05;;;5.75;;
3747;SDS011;1889;50.058;8.688;2023-02-28T20:06:49;8.55;;;6.08;;
3747;SDS011;1889;50.058;8.688;2023-02-28T20:09:18;9.53;;;6.00;;
3747;SDS011;1889;50.058;8.688;2023-02-28T20:11:47;7.22;;;5.72;;
3747;SDS011;1889;50.058;8.688;2023-02-28T20:14:17;7.65;;;6.35;;
3747;SDS011;1889;50.058;8.688;2023-02-28T20:16:46;10.35;;;7.00;;
3747;SDS011;1889;50.058;8.688;2023-02-28T20:19:15;10.32;;;6.95;;
3747;SDS011;1889;50.058;8.688;2023-02-28T20:21:45;8.63;;;6.87;;
3747;SDS011;1889;50.058;8.688;2023-02-28T20:24:14;11.40;;;6.15;;
3747;SDS011;1889;50.058;8.688;2023-02-28T20:26:43;10.03;;;7.00;;
3747;SDS011;1889;50.058;8.688;2023-02-28T20:29:13;9.13;;;6.05;;
3747;SDS011;1889;50.058;8.688;2023-02-28T20:31:42;9.08;;;6.05;;
3747;SDS011;1889;50.058;8.688;2023-02-28T20:34:11;8.98;;;6.50;;
3747;SDS011;1889;50.058;8.688;2023-02-28T20:36:41;7.45;;;6.17;;
3747;SDS011;1889;50.058;8.688;2023-02-28T20:39:10;7.45;;;6.53;;
3747;SDS011;1889;50.058;8.688;2023-02-28T20:41:40;7.95;;;6.50;;
3747;SDS011;1889;50.058;8.688;2023-02-28T20:44:12;11.10;;;7.30;;
3747;SDS011;1889;50.058;8.688;2023-02-28T20:46:42;11.33;;;7.10;;
3747;SDS011;1889;50.058;8.688;2023-02-28T20:49:11;15.25;;;7.75;;
3747;SDS011;1889;50.058;8.688;2023-02-28T20:51:42;7.25;;;6.08;;
3747;SDS011;1889;50.058;8.688;2023-02-28T20:54:11;10.38;;;7.08;;
3747;SDS011;1889;50.058;8.688;2023-02-28T20:56:42;11.55;;;7.00;;
3747;SDS011;1889;50.058;8.688;2023-02-28T20:59:12;24.95;;;11.30;;
3747;SDS011;1889;50.058;8.688;2023-02-28T21:01:41;9.35;;;7.20;;
3747;SDS011;1889;50.058;8.688;2023-02-28T21:04:10;11.90;;;7.70;;
3747;SDS011;1889;50.058;8.688;2023-02-28T21:06:40;12.45;;;7.30;;
3747;SDS011;1889;50.058;8.688;2023-02-28T21:09:13;14.43;;;8.05;;
3747;SDS011;1889;50.058;8.688;2023-02-28T21:11:42;10.58;;;7.25;;
3747;SDS011;1889;50.058;8.688;2023-02-28T21:14:13;12.95;;;9.48;;
3747;SDS011;1889;50.058;8.688;2023-02-28T21:16:44;11.75;;;7.25;;
3747;SDS011;1889;50.058;8.688;2023-02-28T21:19:13;8.28;;;6.75;;
3747;SDS011;1889;50.058;8.688;2023-02-28T21:21:43;16.85;;;8.83;;
3747;SDS011;1889;50.058;8.688;2023-02-28T21:24:15;8.83;;;7.17;;
3747;SDS011;1889;50.058;8.688;2023-02-28T21:26:46;10.25;;;6.95;;
3747;SDS011;1889;50.058;8.688;2023-02-28T21:29:15;9.48;;;6.42;;
3747;SDS011;1889;50.058;8.688;2023-02-28T21:31:45;7.55;;;6.53;;
3747;SDS011;1889;50.058;8.688;2023-02-28T21:34:16;10.03;;;7.00;;
3747;SDS011;1889;50.058;8.688;2023-02-28T21:36:45;9.43;;;7.08;;
3747;SDS011;1889;50.058;8.688;2023-02-28T21:39:15;10.82;;;8.30;;
3747;SDS011;1889;50.058;8.688;2023-02-28T21:41:48;11.55;;;7.85;;
3747;SDS011;1889;50.058;8.688;2023-02-28T21:44:17;12.75;;;7.60;;
3747;SDS011;1889;50.058;8.688;2023-02-28T21:46:49;14.13;;;8.88;;
3747;SDS011;1889;50.058;8.688;2023-02-28T21:49:21;15.58;;;9.00;;
3747;SDS011;1889;50.058;8.688;2023-02-28T21:51:50;18.48;;;9.68;;
3747;SDS011;1889;50.058;8.688;2023-02-28T21:54:20;18.62;;;9.95;;
3747;SDS011;1889;50.058;8.688;2023-02-28T21:56:50;9.03;;;7.35;;
3747;SDS011;1889;50.058;8.688;2023-02-28T21:59:19;10.08;;;7.00;;
3747;SDS011;1889;50.058;8.688;2023-02-28T22:01:49;10.00;;;7.47;;
3747;SDS011;1889;50.058;8.688;2023-02-28T22:04:18;12.82;;;8.78;;
3747;SDS011;1889;50.058;8.688;2023-02-28T22:06:55;11.18;;;8.08;;
3747;SDS011;1889;50.058;8.688;2023-02-28T22:09:20;9.43;;;7.22;;
3747;SDS011;1889;50.058;8.688;2023-02-28T22:11:50;10.40;;;7.83;;
3747;SDS011;1889;50.058;8.688;2023-02-28T22:14:20;10.75;;;8.03;;
3747;SDS011;1889;50.058;8.688;2023-02-28T22:16:49;11.35;;;7.70;;
3747;SDS011;1889;50.058;8.688;2023-02-28T22:19:19;13.88;;;7.75;;
3747;SDS011;1889;50.058;8.688;2023-02-28T22:21:49;11.78;;;7.53;;
3747;SDS011;1889;50.058;8.688;2023-02-28T22:24:20;9.73;;;7.08;;
3747;SDS011;1889;50.058;8.688;2023-02-28T22:26:51;10.20;;;7.30;;
3747;SDS011;1889;50.058;8.688;2023-02-28T22:29:20;9.28;;;7.10;;
3747;SDS011;1889;50.058;8.688;2023-02-28T22:31:50;9.08;;;7.42;;
3747;SDS011;1889;50.058;8.688;2023-02-28T22:34:19;9.45;;;7.72;;
3747;SDS011;1889;50.058;8.688;2023-02-28T22:36:48;11.88;;;8.38;;
3747;SDS011;1889;50.058;8.688;2023-02-28T22:39:18;13.30;;;8.38;;
3747;SDS011;1889;50.058;8.688;2023-02-28T22:41:47;11.43;;;8.30;;
3747;SDS011;1889;50.058;8.688;2023-02-28T22:44:16;10.93;;;8.13;;
3747;SDS011;1889;50.058;8.688;2023-02-28T22:46:48;11.45;;;7.60;;
3747;SDS011;1889;50.058;8.688;2023-02-28T22:49:21;10.45;;;7.95;;
3747;SDS011;1889;50.058;8.688;2023-02-28T22:51:51;10.93;;;7.65;;
3747;SDS011;1889;50.058;8.688;2023-02-28T22:54:20;12.68;;;8.30;;
3747;SDS011;1889;50.058;8.688;2023-02-28T22:56:50;11.38;;;8.40;;
3747;SDS011;1889;50.058;8.688;2023-02-28T22:59:19;10.98;;;7.47;;
3747;SDS011;1889;50.058;8.688;2023-02-28T23:01:49;11.53;;;8.33;;
3747;SDS011;1889;50.058;8.688;2023-02-28T23:04:18;11.60;;;7.50;;
3747;SDS011;1889;50.058;8.688;2023-02-28T23:06:49;10.13;;;7.35;;
3747;SDS011;1889;50.058;8.688;2023-02-28T23:09:18;10.70;;;7.75;;
3747;SDS011;1889;50.058;8.688;2023-02-28T23:11:48;9.63;;;7.90;;
3747;SDS011;1889;50.058;8.688;2023-02-28T23:14:19;10.82;;;7.67;;
3747;SDS011;1889;50.058;8.688;2023-02-28T23:16:50;10.45;;;8.10;;
3747;SDS011;1889;50.058;8.688;2023-02-28T23:19:25;9.88;;;7.83;;
3747;SDS011;1889;50.058;8.688;2023-02-28T23:21:59;10.82;;;8.23;;
3747;SDS011;1889;50.058;8.688;2023-02-28T23:24:30;13.10;;;7.70;;
3747;SDS011;1889;50.058;8.688;2023-02-28T23:27:02;11.53;;;8.88;;
3747;SDS011;1889;50.058;8.688;2023-02-28T23:29:33;12.10;;;8.25;;
3747;SDS011;1889;50.058;8.688;2023-02-28T23:32:03;11.43;;;8.13;;
3747;SDS011;1889;50.058;8.688;2023-02-28T23:34:32;11.25;;;7.78;;
3747;SDS011;1889;50.058;8.688;2023-02-28T23:37:01;11.18;;;7.97;;
3747;SDS011;1889;50.058;8.688;2023-02-28T23:39:31;9.90;;;7.62;;
3747;SDS011;1889;50.058;8.688;2023-02-28T23:42:00;12.20;;;7.95;;
3747;SDS011;1889;50.058;8.688;2023-02-28T23:44:30;10.13;;;7.42;;
3747;SDS011;1889;50.058;8.688;2023-02-28T23:46:59;10.50;;;7.80;;
3747;SDS011;1889;50.058;8.688;2023-02-28T23:49:29;12.37;;;8.20;;
3747;SDS011;1889;50.058;8.688;2023-02-28T23:51:58;10.55;;;7.92;;
3747;SDS011;1889;50.058;8.688;2023-02-28T23:54:27;11.55;;;7.78;;
3747;SDS011;1889;50.058;8.688;2023-02-28T23:56:57;10.18;;;8.25;;
3747;SDS011;1889;50.058;8.688;2023-02-28T23:59:26;10.60;;;8.50;;
